createdAt,value
2023-04-15T00:02:21.105Z,6.30
2023-04-15T00:05:22.801Z,6.65
2023-04-15T00:08:24.518Z,6.45
2023-04-15T00:11:26.179Z,6.57
2023-04-15T00:14:28.203Z,6.43
2023-04-15T00:17:30.246Z,6.62
2023-04-15T00:20:32.376Z,7.35
2023-04-15T00:23:33.986Z,6.95
2023-04-15T00:26:35.820Z,6.50
2023-04-15T00:29:37.468Z,7.40
2023-04-15T00:32:39.110Z,6.97
2023-04-15T00:35:40.775Z,6.72
2023-04-15T00:38:42.631Z,7.30
2023-04-15T00:41:45.652Z,7.62
2023-04-15T00:44:47.402Z,7.15
2023-04-15T00:47:49.755Z,7.68
2023-04-15T00:50:52.010Z,7.37
2023-04-15T00:53:53.639Z,6.50
2023-04-15T00:56:55.273Z,7.07
2023-04-15T00:59:58.111Z,7.10
2023-04-15T01:03:00.037Z,7.53
2023-04-15T01:06:03.895Z,7.10
2023-04-15T01:09:06.354Z,7.35
2023-04-15T01:12:12.114Z,8.38
2023-04-15T01:15:13.759Z,7.47
2023-04-15T01:18:15.950Z,7.85
2023-04-15T01:21:18.235Z,7.03
2023-04-15T01:24:20.221Z,7.37
2023-04-15T01:27:22.610Z,8.10
2023-04-15T01:30:24.559Z,8.52
2023-04-15T01:33:26.312Z,8.05
2023-04-15T01:36:28.305Z,8.10
2023-04-15T01:39:29.917Z,8.10
2023-04-15T01:42:31.561Z,7.97
2023-04-15T01:45:33.276Z,7.87
2023-04-15T01:48:34.902Z,7.40
2023-04-15T01:51:36.522Z,7.55
2023-04-15T01:54:38.136Z,7.35
2023-04-15T01:57:40.122Z,7.65
2023-04-15T02:00:41.822Z,7.45
2023-04-15T02:03:43.567Z,7.97
2023-04-15T02:06:46.156Z,8.15
2023-04-15T02:09:47.907Z,7.90
2023-04-15T02:12:49.560Z,7.30
2023-04-15T02:15:52.650Z,7.50
2023-04-15T02:18:54.269Z,6.87
2023-04-15T02:21:55.932Z,7.18
2023-04-15T02:24:57.630Z,6.78
2023-04-15T02:27:59.292Z,6.65
2023-04-15T02:31:02.311Z,6.93
2023-04-15T02:34:04.747Z,6.50
2023-04-15T02:37:06.791Z,6.93
2023-04-15T02:40:12.172Z,6.55
2023-04-15T02:43:13.820Z,6.57
2023-04-15T02:46:15.445Z,6.22
2023-04-15T02:49:17.194Z,5.65
2023-04-15T02:52:18.871Z,6.03
2023-04-15T02:55:20.636Z,5.68
2023-04-15T02:58:22.724Z,5.95
2023-04-15T03:01:24.416Z,6.40
2023-04-15T03:04:26.180Z,6.07
2023-04-15T03:07:27.775Z,5.75
2023-04-15T03:10:29.461Z,6.00
2023-04-15T03:13:31.351Z,6.18
2023-04-15T03:16:33.237Z,6.10
2023-04-15T03:19:34.867Z,6.50
2023-04-15T03:22:36.532Z,6.43
2023-04-15T03:25:38.182Z,6.10
2023-04-15T03:28:39.750Z,6.03
2023-04-15T03:31:41.836Z,6.32
2023-04-15T03:34:43.701Z,5.70
2023-04-15T03:37:45.348Z,6.65
2023-04-15T03:40:47.207Z,7.30
2023-04-15T03:43:48.800Z,7.35
2023-04-15T03:46:50.967Z,6.68
2023-04-15T03:49:53.828Z,6.43
2023-04-15T03:52:55.652Z,6.40
2023-04-15T03:55:57.365Z,6.53
2023-04-15T03:58:59.185Z,6.60
2023-04-15T04:02:01.007Z,7.43
2023-04-15T04:05:02.784Z,7.78
2023-04-15T04:08:04.901Z,6.87
2023-04-15T04:11:06.706Z,7.25
2023-04-15T04:14:08.372Z,7.20
2023-04-15T04:17:10.072Z,6.45
2023-04-15T04:20:12.463Z,7.82
2023-04-15T04:23:14.209Z,7.30
2023-04-15T04:26:16.318Z,7.78
2023-04-15T04:29:17.983Z,7.10
2023-04-15T04:32:19.642Z,7.40
2023-04-15T04:35:22.019Z,7.53
2023-04-15T04:38:23.701Z,6.62
2023-04-15T04:41:25.550Z,6.45
2023-04-15T04:44:27.461Z,7.47
2023-04-15T04:47:30.210Z,7.15
2023-04-15T04:50:32.363Z,7.28
2023-04-15T04:53:34.167Z,7.35
2023-04-15T04:56:35.774Z,7.93
2023-04-15T04:59:38.111Z,7.43
2023-04-15T05:02:39.983Z,7.85
2023-04-15T05:05:41.757Z,8.00
2023-04-15T05:08:43.422Z,7.37
2023-04-15T05:11:45.049Z,6.72
2023-04-15T05:14:46.901Z,8.27
2023-04-15T05:17:48.545Z,7.87
2023-04-15T05:20:50.365Z,7.05
2023-04-15T05:23:52.309Z,7.97
2023-04-15T05:26:54.097Z,6.93
2023-04-15T05:29:56.713Z,9.68
2023-04-15T05:32:58.466Z,12.57
2023-04-15T05:36:00.132Z,8.23
2023-04-15T05:39:02.239Z,10.70
2023-04-15T05:42:06.018Z,11.15
2023-04-15T05:45:09.373Z,8.50
2023-04-15T05:48:11.032Z,7.55
2023-04-15T05:51:12.714Z,9.38
2023-04-15T05:54:14.347Z,7.60
2023-04-15T05:57:16.209Z,9.63
2023-04-15T06:00:18.068Z,6.35
2023-04-15T06:03:19.907Z,6.62
2023-04-15T06:06:21.756Z,6.20
2023-04-15T06:09:23.431Z,7.20
2023-04-15T06:12:25.085Z,10.32
2023-04-15T06:15:26.719Z,7.00
2023-04-15T06:18:28.361Z,7.20
2023-04-15T06:21:30.235Z,7.95
2023-04-15T06:24:33.189Z,6.03
2023-04-15T06:27:34.889Z,5.00
2023-04-15T06:30:36.945Z,5.47
2023-04-15T06:33:39.680Z,5.78
2023-04-15T06:36:41.299Z,6.35
2023-04-15T06:39:43.614Z,5.80
2023-04-15T06:42:45.667Z,5.07
2023-04-15T06:45:47.406Z,4.72
2023-04-15T06:48:49.061Z,3.80
2023-04-15T06:51:51.641Z,3.65
2023-04-15T06:54:53.278Z,3.42
2023-04-15T06:57:54.997Z,3.92
2023-04-15T07:00:56.842Z,3.45
2023-04-15T07:03:58.556Z,3.42
2023-04-15T07:07:02.602Z,3.53
2023-04-15T07:10:05.486Z,3.35
2023-04-15T07:13:08.915Z,3.70
2023-04-15T07:16:10.747Z,2.92
2023-04-15T07:19:12.372Z,2.90
2023-04-15T07:22:14.017Z,3.03
2023-04-15T07:25:15.725Z,2.50
2023-04-15T07:28:17.415Z,1.87
2023-04-15T07:31:19.346Z,2.22
2023-04-15T07:34:21.129Z,1.90
2023-04-15T07:37:22.804Z,1.80
2023-04-15T07:40:24.487Z,1.60
2023-04-15T07:43:26.133Z,1.40
2023-04-15T07:46:28.530Z,1.83
2023-04-15T07:49:30.285Z,1.58
2023-04-15T07:52:32.482Z,2.17
2023-04-15T07:55:34.144Z,1.75
2023-04-15T07:58:36.111Z,1.77
2023-04-15T08:01:37.861Z,1.92
2023-04-15T08:04:39.601Z,1.70
2023-04-15T08:07:41.801Z,1.90
2023-04-15T08:10:43.524Z,1.80
2023-04-15T08:13:45.453Z,1.83
2023-04-15T08:16:47.078Z,1.75
2023-04-15T08:19:48.714Z,1.33
2023-04-15T08:22:52.282Z,1.52
2023-04-15T08:25:53.916Z,2.00
2023-04-15T08:28:55.674Z,1.33
2023-04-15T08:31:57.440Z,1.10
2023-04-15T08:34:59.276Z,1.00
2023-04-15T08:38:01.028Z,1.40
2023-04-15T08:41:31.258Z,1.08
2023-04-15T08:44:39.055Z,1.10
2023-04-15T08:47:41.168Z,1.30
2023-04-15T08:50:51.652Z,0.90
2023-04-15T08:54:02.677Z,0.80
2023-04-15T08:57:04.626Z,1.45
2023-04-15T09:00:07.152Z,0.98
2023-04-15T09:03:09.785Z,1.20
2023-04-15T09:06:11.892Z,1.77
2023-04-15T09:09:18.603Z,1.08
2023-04-15T09:12:20.339Z,0.90
2023-04-15T09:15:22.791Z,0.90
2023-04-15T09:18:32.036Z,0.98
2023-04-15T09:21:34.667Z,1.05
2023-04-15T09:24:39.029Z,1.42
2023-04-15T09:27:51.048Z,1.12
2023-04-15T09:30:57.520Z,1.05
2023-04-15T09:33:59.663Z,0.87
2023-04-15T09:37:01.611Z,1.08
2023-04-15T09:40:04.062Z,1.00
2023-04-15T09:43:06.815Z,0.80
2023-04-15T09:46:08.560Z,1.00
2023-04-15T09:49:11.350Z,0.90
2023-04-15T09:52:14.398Z,0.98
2023-04-15T09:55:18.580Z,0.80
2023-04-15T09:58:22.170Z,1.35
2023-04-15T10:01:23.957Z,0.95
2023-04-15T10:04:28.407Z,1.00
2023-04-15T10:07:30.911Z,0.90
2023-04-15T10:10:34.552Z,1.35
2023-04-15T10:13:37.447Z,1.77
2023-04-15T10:16:43.602Z,1.20
2023-04-15T10:19:46.793Z,0.90
2023-04-15T10:22:48.871Z,1.00
2023-04-15T10:25:54.442Z,0.90
2023-04-15T10:28:56.934Z,1.05
2023-04-15T10:32:00.011Z,1.10
2023-04-15T10:35:02.539Z,0.90
2023-04-15T10:38:47.290Z,0.80
2023-04-15T10:42:07.172Z,0.88
2023-04-15T10:45:17.822Z,1.20
2023-04-15T10:48:19.618Z,1.17
2023-04-15T10:51:30.505Z,1.50
2023-04-15T10:54:33.715Z,1.10
2023-04-15T10:57:39.332Z,1.10
2023-04-15T11:00:41.259Z,1.23
2023-04-15T11:03:43.598Z,1.02
2023-04-15T11:06:48.343Z,1.25
2023-04-15T11:09:49.965Z,0.93
2023-04-15T11:12:53.720Z,0.95
2023-04-15T11:15:58.945Z,1.05
2023-04-15T11:19:01.799Z,1.20
2023-04-15T11:22:08.381Z,1.58
2023-04-15T11:25:10.028Z,1.25
2023-04-15T11:28:13.188Z,1.35
2023-04-15T11:31:33.600Z,1.08
2023-04-15T11:34:36.273Z,1.30
2023-04-15T11:37:38.122Z,1.40
2023-04-15T11:40:41.006Z,2.12
2023-04-15T11:43:42.714Z,1.52
2023-04-15T11:46:45.618Z,1.45
2023-04-15T11:49:47.322Z,1.60
2023-04-15T11:52:55.079Z,1.60
2023-04-15T11:55:56.966Z,1.50
2023-04-15T11:58:59.857Z,1.45
2023-04-15T12:02:13.001Z,1.60
2023-04-15T12:05:14.759Z,1.62
2023-04-15T12:08:16.411Z,1.40
2023-04-15T12:11:19.199Z,1.60
2023-04-15T12:14:33.698Z,1.65
2023-04-15T12:17:51.902Z,3.42
2023-04-15T12:20:57.394Z,3.37
2023-04-15T12:24:04.336Z,1.60
2023-04-15T12:27:11.944Z,1.02
2023-04-15T12:30:13.779Z,1.00
2023-04-15T12:33:15.482Z,1.50
2023-04-15T12:36:17.394Z,1.00
2023-04-15T12:39:22.698Z,1.35
2023-04-15T12:42:24.361Z,0.90
2023-04-15T12:45:26.874Z,0.80
2023-04-15T12:48:29.578Z,0.70
2023-04-15T12:51:31.965Z,1.05
2023-04-15T12:54:34.665Z,0.77
2023-04-15T12:57:36.402Z,0.75
2023-04-15T13:00:38.637Z,0.70
2023-04-15T13:03:40.552Z,1.20
2023-04-15T13:06:43.264Z,0.70
2023-04-15T13:09:45.017Z,0.60
2023-04-15T13:12:48.045Z,0.65
2023-04-15T13:15:49.886Z,0.60
2023-04-15T13:18:51.812Z,0.70
2023-04-15T13:21:53.486Z,0.80
2023-04-15T13:24:55.182Z,0.65
2023-04-15T13:27:57.712Z,0.75
2023-04-15T13:31:00.436Z,0.75
2023-04-15T13:34:02.142Z,1.30
2023-04-15T13:37:10.034Z,1.02
2023-04-15T13:40:11.988Z,0.95
2023-04-15T13:43:13.668Z,0.73
2023-04-15T13:46:15.590Z,0.90
2023-04-15T13:49:17.315Z,2.92
2023-04-15T13:52:19.216Z,19.73
2023-04-15T13:55:23.749Z,1.75
2023-04-15T13:58:27.261Z,0.65
2023-04-15T14:01:29.738Z,0.88
2023-04-15T14:04:32.353Z,0.68
2023-04-15T14:07:34.347Z,0.70
2023-04-15T14:10:36.048Z,0.60
2023-04-15T14:13:37.943Z,1.62
2023-04-15T14:16:40.169Z,1.30
2023-04-15T14:19:41.963Z,0.90
2023-04-15T14:22:43.606Z,1.12
2023-04-15T14:25:47.927Z,1.05
2023-04-15T14:28:50.378Z,1.10
2023-04-15T14:32:07.195Z,0.60
2023-04-15T14:35:14.247Z,0.62
2023-04-15T14:38:16.086Z,0.60
2023-04-15T14:41:17.771Z,3.17
2023-04-15T14:44:19.435Z,0.80
2023-04-15T14:47:21.101Z,0.80
2023-04-15T14:50:23.163Z,3.20
2023-04-15T14:53:24.838Z,1.10
2023-04-15T14:56:27.334Z,1.20
2023-04-15T14:59:29.110Z,1.40
2023-04-15T15:02:39.042Z,1.00
2023-04-15T15:05:42.133Z,1.00
2023-04-15T15:08:44.125Z,1.55
2023-04-15T15:11:45.788Z,1.40
2023-04-15T15:14:47.834Z,1.80
2023-04-15T15:17:51.038Z,1.30
2023-04-15T15:20:52.723Z,1.10
2023-04-15T15:23:54.433Z,1.00
2023-04-15T15:26:57.301Z,1.05
2023-04-15T15:29:58.961Z,7.22
2023-04-15T15:33:00.777Z,8.32
2023-04-15T15:36:03.754Z,1.87
2023-04-15T15:39:05.940Z,2.10
2023-04-15T15:42:08.061Z,1.85
2023-04-15T15:45:10.287Z,1.37
2023-04-15T15:48:12.115Z,1.10
2023-04-15T15:51:13.995Z,1.10
2023-04-15T15:54:15.699Z,1.00
2023-04-15T15:57:17.502Z,1.27
2023-04-15T16:00:19.217Z,1.37
2023-04-15T16:03:21.076Z,1.05
2023-04-15T16:06:22.926Z,1.00
2023-04-15T16:09:24.606Z,1.10
2023-04-15T16:12:27.369Z,1.08
2023-04-15T16:15:29.298Z,1.50
2023-04-15T16:18:32.043Z,2.40
2023-04-15T16:21:35.518Z,2.40
2023-04-15T16:24:37.373Z,1.10
2023-04-15T16:30:44.049Z,5.87
2023-04-15T16:33:46.351Z,3.20
2023-04-15T16:36:48.303Z,3.90
2023-04-15T16:39:50.092Z,2.15
2023-04-15T16:42:51.918Z,1.50
2023-04-15T16:45:53.903Z,1.35
2023-04-15T16:48:57.011Z,1.35
2023-04-15T16:51:58.868Z,0.98
2023-04-15T16:55:00.623Z,1.10
2023-04-15T16:58:03.942Z,1.20
2023-04-15T17:01:06.820Z,1.20
2023-04-15T17:04:09.143Z,1.20
2023-04-15T17:07:11.831Z,1.30
2023-04-15T17:10:16.325Z,1.15
2023-04-15T17:13:17.999Z,1.42
2023-04-15T17:16:20.015Z,1.45
2023-04-15T17:19:22.257Z,1.42
2023-04-15T17:22:23.965Z,1.75
2023-04-15T17:25:25.704Z,2.00
2023-04-15T17:28:27.384Z,1.55
2023-04-15T17:31:30.544Z,1.70
2023-04-15T17:34:50.660Z,1.87
2023-04-15T17:37:52.860Z,2.20
2023-04-15T17:40:55.180Z,2.10
2023-04-15T17:43:57.162Z,2.03
2023-04-15T17:46:59.395Z,4.03
2023-04-15T17:50:01.595Z,10.73
2023-04-15T17:53:04.156Z,40.60
2023-04-15T17:56:06.088Z,31.42
2023-04-15T17:59:09.751Z,23.50
2023-04-15T18:02:15.555Z,25.90
2023-04-15T18:05:19.857Z,23.20
2023-04-15T18:08:21.868Z,19.10
2023-04-15T18:11:24.111Z,11.02
2023-04-15T18:14:34.106Z,6.60
2023-04-15T18:17:37.123Z,7.57
2023-04-15T18:20:39.998Z,13.02
2023-04-15T18:23:42.773Z,16.33
2023-04-15T18:26:47.558Z,28.65
2023-04-15T18:29:52.196Z,35.03
2023-04-15T18:32:54.081Z,30.77
2023-04-15T18:35:57.821Z,23.30
2023-04-15T18:39:00.279Z,19.80
2023-04-15T18:42:02.702Z,17.95
2023-04-15T18:45:05.474Z,21.87
2023-04-15T18:48:07.479Z,17.70
2023-04-15T18:51:09.603Z,18.48
2023-04-15T18:54:13.896Z,15.32
2023-04-15T18:57:20.421Z,11.15
2023-04-15T19:00:33.299Z,27.52
2023-04-15T19:03:35.255Z,6.50
2023-04-15T19:06:38.829Z,6.03
2023-04-15T19:09:41.621Z,4.97
2023-04-15T19:12:43.935Z,6.20
2023-04-15T19:15:46.227Z,5.30
2023-04-15T19:18:48.591Z,4.85
2023-04-15T19:21:51.419Z,12.02
2023-04-15T19:24:53.888Z,11.18
2023-04-15T19:27:57.920Z,4.35
2023-04-15T19:34:18.069Z,4.00
2023-04-15T19:37:20.546Z,5.25
2023-04-15T19:40:23.131Z,6.45
2023-04-15T19:43:25.657Z,8.30
2023-04-15T19:46:30.323Z,9.07
2023-04-15T19:49:32.306Z,9.80
2023-04-15T19:52:35.487Z,8.80
2023-04-15T19:55:38.204Z,9.45
2023-04-15T19:58:39.913Z,6.03
2023-04-15T20:01:44.988Z,5.60
2023-04-15T20:04:47.898Z,5.25
2023-04-15T20:07:52.309Z,5.75
2023-04-15T20:10:55.256Z,5.68
2023-04-15T20:13:57.878Z,7.25
2023-04-15T20:17:01.277Z,8.00
2023-04-15T20:20:05.789Z,11.98
2023-04-15T20:23:07.732Z,9.07
2023-04-15T20:26:09.877Z,8.45
2023-04-15T20:29:13.893Z,8.05
2023-04-15T20:32:15.888Z,6.95
2023-04-15T20:35:19.844Z,7.10
2023-04-15T20:38:22.476Z,7.65
2023-04-15T20:41:24.724Z,7.40
2023-04-15T20:44:26.721Z,6.65
2023-04-15T20:47:28.915Z,6.12
2023-04-15T20:50:31.489Z,6.75
2023-04-15T20:53:34.607Z,8.95
2023-04-15T20:56:36.721Z,11.93
2023-04-15T20:59:38.479Z,15.25
2023-04-15T21:02:40.980Z,17.90
2023-04-15T21:05:43.725Z,17.20
2023-04-15T21:08:45.778Z,17.37
2023-04-15T21:12:00.388Z,17.50
2023-04-15T21:15:02.531Z,13.55
2023-04-15T21:18:04.392Z,13.90
2023-04-15T21:21:06.153Z,14.75
2023-04-15T21:24:07.957Z,14.27
2023-04-15T21:27:09.814Z,13.90
2023-04-15T21:30:12.338Z,13.48
2023-04-15T21:33:13.990Z,15.18
2023-04-15T21:36:15.645Z,14.73
2023-04-15T21:39:17.394Z,14.27
2023-04-15T21:42:19.175Z,12.37
2023-04-15T21:45:20.838Z,10.30
2023-04-15T21:48:22.618Z,9.57
2023-04-15T21:51:24.382Z,8.98
2023-04-15T21:54:26.190Z,8.27
2023-04-15T21:57:27.872Z,7.93
2023-04-15T22:00:29.734Z,8.13
2023-04-15T22:03:34.293Z,8.02
2023-04-15T22:06:36.457Z,8.05
2023-04-15T22:09:38.079Z,8.30
2023-04-15T22:12:42.829Z,9.50
2023-04-15T22:15:44.533Z,11.25
2023-04-15T22:18:46.184Z,9.40
2023-04-15T22:21:47.825Z,12.57
2023-04-15T22:24:49.507Z,12.18
2023-04-15T22:27:51.208Z,11.60
2023-04-15T22:30:54.703Z,12.07
2023-04-15T22:33:56.402Z,12.23
2023-04-15T22:36:58.097Z,10.88
2023-04-15T22:39:59.877Z,11.85
2023-04-15T22:43:01.617Z,11.40
2023-04-15T22:46:03.283Z,11.30
2023-04-15T22:49:08.394Z,12.10
2023-04-15T22:52:14.521Z,10.93
2023-04-15T22:55:22.024Z,11.48
2023-04-15T22:58:23.791Z,11.70
2023-04-15T23:01:25.553Z,11.20
2023-04-15T23:04:28.295Z,11.40
2023-04-15T23:07:30.193Z,11.50
2023-04-15T23:10:31.867Z,10.23
2023-04-15T23:13:35.694Z,9.40
2023-04-15T23:16:37.428Z,9.10
2023-04-15T23:19:39.374Z,10.00
2023-04-15T23:22:42.083Z,9.05
2023-04-15T23:25:43.772Z,9.02
2023-04-15T23:28:45.398Z,8.10
2023-04-15T23:31:47.246Z,7.45
2023-04-15T23:34:48.903Z,7.43
2023-04-15T23:37:50.858Z,7.45
2023-04-15T23:40:52.673Z,8.02
2023-04-15T23:43:54.334Z,8.40
2023-04-15T23:46:56.050Z,7.82
2023-04-15T23:49:57.887Z,8.45
2023-04-15T23:52:59.525Z,8.50
2023-04-15T23:56:01.498Z,8.23
2023-04-15T23:59:03.122Z,8.38
